sensor_id;sensor_type;location;lat;lon;timestamp;temperature;humidity
23769;DHT22;12064;50.890;5.424;2023-02-13T00:02:33;22.60;65.30
23769;DHT22;12064;50.890;5.424;2023-02-13T00:11:24;22.60;65.10
23769;DHT22;12064;50.890;5.424;2023-02-13T00:20:15;22.60;64.90
23769;DHT22;12064;50.890;5.424;2023-02-13T00:29:08;22.60;64.60
23769;DHT22;12064;50.890;5.424;2023-02-13T00:37:59;22.50;65.50
23769;DHT22;12064;50.890;5.424;2023-02-13T00:46:50;22.50;64.50
23769;DHT22;12064;50.890;5.424;2023-02-13T00:55:41;22.50;64.40
23769;DHT22;12064;50.890;5.424;2023-02-13T01:04:34;22.40;64.30
23769;DHT22;12064;50.890;5.424;2023-02-13T01:13:25;22.30;64.30
23769;DHT22;12064;50.890;5.424;2023-02-13T01:22:15;22.20;64.70
23769;DHT22;12064;50.890;5.424;2023-02-13T01:31:07;22.00;65.30
23769;DHT22;12064;50.890;5.424;2023-02-13T01:39:58;22.30;64.50
23769;DHT22;12064;50.890;5.424;2023-02-13T01:48:57;22.30;64.20
23769;DHT22;12064;50.890;5.424;2023-02-13T01:57:56;22.40;63.90
23769;DHT22;12064;50.890;5.424;2023-02-13T02:06:57;22.30;64.10
23769;DHT22;12064;50.890;5.424;2023-02-13T02:15:51;22.20;64.10
23769;DHT22;12064;50.890;5.424;2023-02-13T03:02:05;21.70;65.60
23769;DHT22;12064;50.890;5.424;2023-02-13T03:11:16;21.90;64.60
23769;DHT22;12064;50.890;5.424;2023-02-13T03:20:54;22.20;63.60
23769;DHT22;12064;50.890;5.424;2023-02-13T03:48:36;22.10;63.40
23769;DHT22;12064;50.890;5.424;2023-02-13T03:57:51;22.10;63.40
23769;DHT22;12064;50.890;5.424;2023-02-13T04:07:12;21.30;65.50
23769;DHT22;12064;50.890;5.424;2023-02-13T04:16:28;20.70;67.50
23769;DHT22;12064;50.890;5.424;2023-02-13T04:25:22;21.20;66.40
23769;DHT22;12064;50.890;5.424;2023-02-13T04:34:13;21.10;65.90
23769;DHT22;12064;50.890;5.424;2023-02-13T04:43:03;20.80;67.20
23769;DHT22;12064;50.890;5.424;2023-02-13T04:51:54;20.70;68.10
23769;DHT22;12064;50.890;5.424;2023-02-13T05:00:48;20.90;67.60
23769;DHT22;12064;50.890;5.424;2023-02-13T05:09:40;21.20;67.20
23769;DHT22;12064;50.890;5.424;2023-02-13T05:18:30;21.10;67.30
23769;DHT22;12064;50.890;5.424;2023-02-13T05:27:23;21.00;67.50
23769;DHT22;12064;50.890;5.424;2023-02-13T05:36:17;21.20;67.20
23769;DHT22;12064;50.890;5.424;2023-02-13T05:45:13;21.40;66.70
23769;DHT22;12064;50.890;5.424;2023-02-13T05:54:07;21.30;67.00
23769;DHT22;12064;50.890;5.424;2023-02-13T06:03:00;21.10;67.40
23769;DHT22;12064;50.890;5.424;2023-02-13T06:11:51;21.00;68.00
23769;DHT22;12064;50.890;5.424;2023-02-13T06:20:44;20.80;68.00
23769;DHT22;12064;50.890;5.424;2023-02-13T06:29:36;20.70;68.60
23769;DHT22;12064;50.890;5.424;2023-02-13T06:38:28;20.70;68.60
23769;DHT22;12064;50.890;5.424;2023-02-13T06:47:20;20.90;68.10
23769;DHT22;12064;50.890;5.424;2023-02-13T06:56:11;20.80;68.10
23769;DHT22;12064;50.890;5.424;2023-02-13T07:05:07;20.70;68.50
23769;DHT22;12064;50.890;5.424;2023-02-13T07:14:01;20.60;68.50
23769;DHT22;12064;50.890;5.424;2023-02-13T07:22:52;20.80;67.60
23769;DHT22;12064;50.890;5.424;2023-02-13T07:31:42;20.80;67.60
23769;DHT22;12064;50.890;5.424;2023-02-13T07:40:33;20.70;68.70
23769;DHT22;12064;50.890;5.424;2023-02-13T07:49:24;20.60;67.60
23769;DHT22;12064;50.890;5.424;2023-02-13T07:58:15;20.70;67.20
23769;DHT22;12064;50.890;5.424;2023-02-13T08:07:06;20.70;67.60
23769;DHT22;12064;50.890;5.424;2023-02-13T08:15:57;20.60;68.00
23769;DHT22;12064;50.890;5.424;2023-02-13T08:24:48;20.40;68.40
23769;DHT22;12064;50.890;5.424;2023-02-13T08:33:39;20.50;68.20
23769;DHT22;12064;50.890;5.424;2023-02-13T08:42:33;20.40;67.70
23769;DHT22;12064;50.890;5.424;2023-02-13T08:51:24;20.30;68.10
23769;DHT22;12064;50.890;5.424;2023-02-13T09:00:15;20.30;68.20
23769;DHT22;12064;50.890;5.424;2023-02-13T09:09:06;20.40;67.90
23769;DHT22;12064;50.890;5.424;2023-02-13T09:17:56;20.30;67.90
23769;DHT22;12064;50.890;5.424;2023-02-13T09:26:47;20.30;68.10
23769;DHT22;12064;50.890;5.424;2023-02-13T09:35:38;20.20;68.40
23769;DHT22;12064;50.890;5.424;2023-02-13T09:44:36;20.20;68.30
23769;DHT22;12064;50.890;5.424;2023-02-13T09:53:32;20.30;67.70
23769;DHT22;12064;50.890;5.424;2023-02-13T10:11:58;20.30;67.80
23769;DHT22;12064;50.890;5.424;2023-02-13T10:20:53;20.20;68.10
23769;DHT22;12064;50.890;5.424;2023-02-13T10:30:00;20.10;68.40
23769;DHT22;12064;50.890;5.424;2023-02-13T10:39:27;20.10;68.50
23769;DHT22;12064;50.890;5.424;2023-02-13T11:07:10;20.90;65.80
23769;DHT22;12064;50.890;5.424;2023-02-13T11:16:06;21.20;64.70
23769;DHT22;12064;50.890;5.424;2023-02-13T11:25:06;20.40;67.50
23769;DHT22;12064;50.890;5.424;2023-02-13T11:33:58;20.10;68.20
23769;DHT22;12064;50.890;5.424;2023-02-13T11:42:50;20.00;68.40
23769;DHT22;12064;50.890;5.424;2023-02-13T11:51:50;20.00;68.50
23769;DHT22;12064;50.890;5.424;2023-02-13T12:00:44;20.20;68.30
23769;DHT22;12064;50.890;5.424;2023-02-13T12:09:37;20.60;66.90
23769;DHT22;12064;50.890;5.424;2023-02-13T12:18:37;21.30;64.50
23769;DHT22;12064;50.890;5.424;2023-02-13T12:27:42;21.40;64.10
23769;DHT22;12064;50.890;5.424;2023-02-13T12:37:02;21.50;63.80
23769;DHT22;12064;50.890;5.424;2023-02-13T13:32:18;21.80;65.00
23769;DHT22;12064;50.890;5.424;2023-02-13T13:41:22;22.50;62.80
23769;DHT22;12064;50.890;5.424;2023-02-13T13:50:20;22.70;63.40
23769;DHT22;12064;50.890;5.424;2023-02-13T14:26:35;22.50;63.40
23769;DHT22;12064;50.890;5.424;2023-02-13T14:35:29;22.30;63.60
23769;DHT22;12064;50.890;5.424;2023-02-13T14:53:44;21.60;64.90
23769;DHT22;12064;50.890;5.424;2023-02-13T15:02:41;21.00;66.80
23769;DHT22;12064;50.890;5.424;2023-02-13T15:11:40;21.10;66.70
23769;DHT22;12064;50.890;5.424;2023-02-13T15:20:34;21.70;64.70
23769;DHT22;12064;50.890;5.424;2023-02-13T15:29:25;21.90;64.10
23769;DHT22;12064;50.890;5.424;2023-02-13T15:38:32;21.80;64.00
23769;DHT22;12064;50.890;5.424;2023-02-13T15:47:28;22.00;63.30
23769;DHT22;12064;50.890;5.424;2023-02-13T15:56:19;21.90;63.40
23769;DHT22;12064;50.890;5.424;2023-02-13T16:05:14;22.00;63.20
23769;DHT22;12064;50.890;5.424;2023-02-13T16:14:14;22.00;63.10
23769;DHT22;12064;50.890;5.424;2023-02-13T16:32:45;21.80;63.40
23769;DHT22;12064;50.890;5.424;2023-02-13T16:41:35;21.90;63.30
23769;DHT22;12064;50.890;5.424;2023-02-13T16:50:53;21.70;63.70
23769;DHT22;12064;50.890;5.424;2023-02-13T17:00:06;21.70;63.40
23769;DHT22;12064;50.890;5.424;2023-02-13T17:09:16;21.60;63.60
23769;DHT22;12064;50.890;5.424;2023-02-13T17:18:07;21.40;64.60
23769;DHT22;12064;50.890;5.424;2023-02-13T17:27:19;21.40;64.70
23769;DHT22;12064;50.890;5.424;2023-02-13T17:36:11;21.70;63.60
23769;DHT22;12064;50.890;5.424;2023-02-13T17:45:02;21.90;62.90
23769;DHT22;12064;50.890;5.424;2023-02-13T17:53:53;21.90;63.20
23769;DHT22;12064;50.890;5.424;2023-02-13T18:02:45;21.80;63.40
23769;DHT22;12064;50.890;5.424;2023-02-13T18:11:37;20.90;66.00
23769;DHT22;12064;50.890;5.424;2023-02-13T18:20:27;20.80;67.00
23769;DHT22;12064;50.890;5.424;2023-02-13T18:29:18;20.90;67.30
23769;DHT22;12064;50.890;5.424;2023-02-13T18:38:09;20.70;67.60
23769;DHT22;12064;50.890;5.424;2023-02-13T18:47:00;20.70;67.70
23769;DHT22;12064;50.890;5.424;2023-02-13T18:56:03;21.00;67.30
23769;DHT22;12064;50.890;5.424;2023-02-13T19:04:54;21.00;67.10
23769;DHT22;12064;50.890;5.424;2023-02-13T19:13:45;21.00;67.50
23769;DHT22;12064;50.890;5.424;2023-02-13T19:22:36;20.90;67.60
23769;DHT22;12064;50.890;5.424;2023-02-13T19:41:15;21.30;66.70
23769;DHT22;12064;50.890;5.424;2023-02-13T19:50:07;21.20;67.00
23769;DHT22;12064;50.890;5.424;2023-02-13T19:58:58;21.20;67.50
23769;DHT22;12064;50.890;5.424;2023-02-13T20:07:49;21.60;67.20
23769;DHT22;12064;50.890;5.424;2023-02-13T20:16:40;22.40;65.80
23769;DHT22;12064;50.890;5.424;2023-02-13T20:25:32;23.20;63.70
23769;DHT22;12064;50.890;5.424;2023-02-13T20:34:26;23.60;63.80
23769;DHT22;12064;50.890;5.424;2023-02-13T20:43:45;23.80;62.40
23769;DHT22;12064;50.890;5.424;2023-02-13T20:52:39;23.80;62.20
23769;DHT22;12064;50.890;5.424;2023-02-13T21:01:34;23.80;61.80
23769;DHT22;12064;50.890;5.424;2023-02-13T21:10:29;23.90;61.30
23769;DHT22;12064;50.890;5.424;2023-02-13T21:28:55;23.20;63.80
23769;DHT22;12064;50.890;5.424;2023-02-13T21:47:48;23.30;62.60
23769;DHT22;12064;50.890;5.424;2023-02-13T21:56:42;23.20;62.40
23769;DHT22;12064;50.890;5.424;2023-02-13T22:05:33;23.10;62.40
23769;DHT22;12064;50.890;5.424;2023-02-13T22:14:26;23.00;62.60
23769;DHT22;12064;50.890;5.424;2023-02-13T22:23:17;22.90;62.60
23769;DHT22;12064;50.890;5.424;2023-02-13T22:32:07;22.80;62.60
23769;DHT22;12064;50.890;5.424;2023-02-13T22:41:09;22.80;62.60
23769;DHT22;12064;50.890;5.424;2023-02-13T22:50:00;22.60;62.80
23769;DHT22;12064;50.890;5.424;2023-02-13T22:58:51;22.60;62.70
23769;DHT22;12064;50.890;5.424;2023-02-13T23:07:42;22.40;63.20
23769;DHT22;12064;50.890;5.424;2023-02-13T23:16:40;22.00;64.20
23769;DHT22;12064;50.890;5.424;2023-02-13T23:25:50;22.30;63.30
23769;DHT22;12064;50.890;5.424;2023-02-13T23:34:40;22.30;63.20
23769;DHT22;12064;50.890;5.424;2023-02-13T23:43:54;22.40;63.00
23769;DHT22;12064;50.890;5.424;2023-02-13T23:52:44;22.40;63.00
